createdAt,value
2018-12-15T00:00:08.064Z,1011.32
2018-12-15T00:01:08.046Z,1011.28
2018-12-15T00:02:08.053Z,1011.35
2018-12-15T00:03:08.022Z,1011.37
2018-12-15T00:04:16.710Z,1011.37
2018-12-15T00:06:12.518Z,1011.35
2018-12-15T00:07:12.472Z,1011.32
2018-12-15T00:08:12.492Z,1011.32
2018-12-15T00:09:12.478Z,1011.35
2018-12-15T00:10:12.426Z,1011.32
2018-12-15T00:11:12.412Z,1011.29
2018-12-15T00:12:12.410Z,1011.30
2018-12-15T00:13:12.401Z,1011.31
2018-12-15T00:14:12.412Z,1011.30
2018-12-15T00:15:12.381Z,1011.28
2018-12-15T00:16:12.370Z,1011.35
2018-12-15T00:17:12.345Z,1011.35
2018-12-15T00:18:12.347Z,1011.35
2018-12-15T00:19:12.316Z,1011.41
2018-12-15T00:20:12.317Z,1011.39
2018-12-15T00:21:12.304Z,1011.43
2018-12-15T00:22:12.280Z,1011.45
2018-12-15T00:23:12.276Z,1011.45
2018-12-15T00:24:12.287Z,1011.47
2018-12-15T00:25:12.270Z,1011.49
2018-12-15T00:26:12.239Z,1011.50
2018-12-15T00:27:12.212Z,1011.51
2018-12-15T00:28:12.206Z,1011.51
2018-12-15T00:29:12.193Z,1011.51
2018-12-15T00:30:12.183Z,1011.51
2018-12-15T00:31:12.208Z,1011.49
2018-12-15T00:32:12.153Z,1011.53
2018-12-15T00:33:12.146Z,1011.53
2018-12-15T00:34:12.151Z,1011.53
2018-12-15T00:35:12.116Z,1011.50
2018-12-15T00:36:12.115Z,1011.49
2018-12-15T00:37:20.811Z,1011.54
2018-12-15T00:39:25.590Z,1011.57
2018-12-15T00:40:25.280Z,1011.55
2018-12-15T00:42:20.639Z,1011.59
2018-12-15T00:43:20.596Z,1011.60
2018-12-15T00:44:20.600Z,1011.61
2018-12-15T00:45:20.581Z,1011.61
2018-12-15T00:46:20.576Z,1011.63
2018-12-15T00:47:20.575Z,1011.58
2018-12-15T00:48:20.687Z,1011.65
2018-12-15T00:49:20.559Z,1011.65
2018-12-15T00:50:20.524Z,1011.61
2018-12-15T00:51:20.493Z,1011.57
2018-12-15T00:52:20.524Z,1011.61
2018-12-15T00:53:20.516Z,1011.60
2018-12-15T00:54:20.479Z,1011.62
2018-12-15T00:55:20.449Z,1011.64
2018-12-15T00:56:20.475Z,1011.68
2018-12-15T00:57:20.430Z,1011.66
2018-12-15T00:58:20.413Z,1011.66
2018-12-15T00:59:20.433Z,1011.66
2018-12-15T01:00:20.443Z,1011.67
2018-12-15T01:01:20.405Z,1011.63
2018-12-15T01:02:20.371Z,1011.67
2018-12-15T01:03:20.354Z,1011.69
2018-12-15T01:04:20.347Z,1011.67
2018-12-15T01:05:20.348Z,1011.73
2018-12-15T01:06:20.310Z,1011.68
2018-12-15T01:07:20.349Z,1011.71
2018-12-15T01:08:20.300Z,1011.72
2018-12-15T01:09:20.281Z,1011.75
2018-12-15T01:10:20.263Z,1011.75
2018-12-15T01:11:20.285Z,1011.77
2018-12-15T01:12:20.250Z,1011.74
2018-12-15T01:13:20.225Z,1011.78
2018-12-15T01:14:20.226Z,1011.78
2018-12-15T01:15:20.255Z,1011.79
2018-12-15T01:16:20.216Z,1011.82
2018-12-15T01:17:20.699Z,1011.80
2018-12-15T01:18:20.215Z,1011.79
2018-12-15T01:19:20.154Z,1011.78
2018-12-15T01:20:20.151Z,1011.79
2018-12-15T01:21:20.176Z,1011.79
2018-12-15T01:22:20.116Z,1011.78
2018-12-15T01:23:20.113Z,1011.83
2018-12-15T01:24:20.100Z,1011.84
2018-12-15T01:25:20.116Z,1011.86
2018-12-15T01:26:20.081Z,1011.89
2018-12-15T01:27:28.884Z,1011.92
2018-12-15T01:29:32.297Z,1011.94
2018-12-15T01:30:33.346Z,1011.95
2018-12-15T01:32:28.979Z,1011.97
2018-12-15T01:33:28.946Z,1011.99
2018-12-15T01:34:28.946Z,1011.98
2018-12-15T01:35:28.932Z,1012.06
2018-12-15T01:36:28.909Z,1012.01
2018-12-15T01:37:28.911Z,1012.02
2018-12-15T01:38:28.890Z,1012.01
2018-12-15T01:39:28.869Z,1012.03
2018-12-15T01:40:28.874Z,1012.02
2018-12-15T01:41:28.852Z,1012.03
2018-12-15T01:42:28.839Z,1012.03
2018-12-15T01:43:28.815Z,1012.02
2018-12-15T01:44:28.800Z,1012.01
2018-12-15T01:45:28.801Z,1012.01
2018-12-15T01:46:28.772Z,1012.05
2018-12-15T01:47:28.767Z,1012.03
2018-12-15T01:48:28.759Z,1012.03
2018-12-15T01:49:28.766Z,1012.08
2018-12-15T01:50:28.909Z,1012.10
2018-12-15T01:51:28.712Z,1012.11
2018-12-15T01:52:28.708Z,1012.15
2018-12-15T01:53:28.690Z,1012.15
2018-12-15T01:54:28.705Z,1012.11
2018-12-15T01:55:28.681Z,1012.13
2018-12-15T01:56:28.700Z,1012.13
2018-12-15T01:57:28.642Z,1012.12
2018-12-15T01:58:28.628Z,1012.15
2018-12-15T01:59:28.611Z,1012.14
2018-12-15T02:00:37.416Z,1012.13
2018-12-15T02:02:33.109Z,1012.16
2018-12-15T02:03:42.677Z,1012.19
2018-12-15T02:05:37.548Z,1012.22
2018-12-15T02:06:37.521Z,1012.20
2018-12-15T02:07:37.504Z,1012.21
2018-12-15T02:08:37.482Z,1012.22
2018-12-15T02:09:37.477Z,1012.22
2018-12-15T02:10:37.464Z,1012.21
2018-12-15T02:11:37.501Z,1012.21
2018-12-15T02:12:37.441Z,1012.19
2018-12-15T02:13:37.415Z,1012.17
2018-12-15T02:14:37.391Z,1012.18
2018-12-15T02:15:37.408Z,1012.21
2018-12-15T02:16:37.370Z,1012.20
2018-12-15T02:17:37.384Z,1012.19
2018-12-15T02:18:37.348Z,1012.18
2018-12-15T02:19:37.339Z,1012.18
2018-12-15T02:20:37.323Z,1012.21
2018-12-15T02:21:37.343Z,1012.24
2018-12-15T02:22:37.297Z,1012.22
2018-12-15T02:23:37.308Z,1012.26
2018-12-15T02:24:37.282Z,1012.28
2018-12-15T02:25:37.290Z,1012.29
2018-12-15T02:26:37.280Z,1012.28
2018-12-15T02:27:37.250Z,1012.29
2018-12-15T02:28:37.256Z,1012.32
2018-12-15T02:29:37.216Z,1012.29
2018-12-15T02:30:37.240Z,1012.29
2018-12-15T02:31:37.228Z,1012.31
2018-12-15T02:32:37.242Z,1012.31
2018-12-15T02:33:37.169Z,1012.33
2018-12-15T02:34:37.151Z,1012.32
2018-12-15T02:35:37.142Z,1012.28
2018-12-15T02:36:37.130Z,1012.31
2018-12-15T02:37:37.126Z,1012.30
2018-12-15T02:38:37.154Z,1012.27
2018-12-15T02:39:37.112Z,1012.26
2018-12-15T02:40:37.084Z,1012.27
2018-12-15T02:41:37.122Z,1012.26
2018-12-15T02:42:37.052Z,1012.26
2018-12-15T02:43:37.045Z,1012.27
2018-12-15T02:44:37.058Z,1012.26
2018-12-15T02:45:37.019Z,1012.33
2018-12-15T02:46:37.008Z,1012.34
2018-12-15T02:47:41.397Z,1012.34
2018-12-15T02:48:37.007Z,1012.38
2018-12-15T02:49:36.996Z,1012.36
2018-12-15T02:50:36.964Z,1012.34
2018-12-15T02:51:36.948Z,1012.37
2018-12-15T02:52:36.953Z,1012.36
2018-12-15T02:53:36.918Z,1012.34
2018-12-15T02:54:36.910Z,1012.37
2018-12-15T02:55:36.920Z,1012.36
2018-12-15T02:56:36.885Z,1012.34
2018-12-15T02:57:36.877Z,1012.33
2018-12-15T03:14:22.055Z,1012.30
2018-12-15T03:15:21.976Z,1012.28
2018-12-15T03:16:21.982Z,1012.29
2018-12-15T03:17:21.957Z,1012.29
2018-12-15T03:18:21.951Z,1012.36
2018-12-15T03:19:21.922Z,1012.31
2018-12-15T03:20:21.963Z,1012.35
2018-12-15T03:21:21.875Z,1012.37
2018-12-15T03:22:21.858Z,1012.32
2018-12-15T03:23:21.847Z,1012.36
2018-12-15T03:24:21.828Z,1012.36
2018-12-15T03:25:21.848Z,1012.38
2018-12-15T03:26:21.846Z,1012.41
2018-12-15T03:27:21.824Z,1012.37
2018-12-15T03:28:21.779Z,1012.34
2018-12-15T03:29:21.784Z,1012.35
2018-12-15T03:30:21.762Z,1012.36
2018-12-15T03:31:21.752Z,1012.36
2018-12-15T03:32:21.777Z,1012.36
2018-12-15T03:33:21.742Z,1012.37
2018-12-15T03:34:21.762Z,1012.38
2018-12-15T03:35:21.726Z,1012.38
2018-12-15T03:36:21.676Z,1012.33
2018-12-15T03:37:21.670Z,1012.35
2018-12-15T03:38:21.661Z,1012.36
2018-12-15T03:39:21.657Z,1012.33
2018-12-15T03:40:21.636Z,1012.37
2018-12-15T03:41:21.636Z,1012.36
2018-12-15T03:42:21.611Z,1012.32
2018-12-15T03:43:21.608Z,1012.33
2018-12-15T03:44:21.579Z,1012.36
2018-12-15T03:45:21.679Z,1012.38
2018-12-15T03:46:21.550Z,1012.37
2018-12-15T03:47:21.554Z,1012.41
2018-12-15T03:48:21.599Z,1012.38
2018-12-15T03:49:21.568Z,1012.39
2018-12-15T03:50:21.507Z,1012.38
2018-12-15T03:51:21.510Z,1012.38
2018-12-15T03:52:21.491Z,1012.36
2018-12-15T03:53:21.478Z,1012.33
2018-12-15T03:54:21.496Z,1012.33
2018-12-15T03:55:21.469Z,1012.35
2018-12-15T03:57:42.502Z,1012.36
2018-12-15T03:58:42.510Z,1012.34
2018-12-15T03:59:50.165Z,1012.35
2018-12-15T04:01:47.025Z,1012.33
2018-12-15T04:02:46.990Z,1012.31
2018-12-15T04:03:46.989Z,1012.29
2018-12-15T04:04:47.101Z,1012.33
2018-12-15T04:05:46.955Z,1012.35
2018-12-15T04:06:46.926Z,1012.31
2018-12-15T04:07:46.924Z,1012.31
2018-12-15T04:08:46.918Z,1012.36
2018-12-15T04:09:46.923Z,1012.30
2018-12-15T04:10:46.905Z,1012.26
2018-12-15T04:11:46.908Z,1012.29
2018-12-15T04:12:46.853Z,1012.28
2018-12-15T04:13:46.839Z,1012.27
2018-12-15T04:14:46.829Z,1012.28
2018-12-15T04:15:46.838Z,1012.26
2018-12-15T04:16:46.805Z,1012.25
2018-12-15T04:17:46.808Z,1012.20
2018-12-15T04:18:46.782Z,1012.22
2018-12-15T04:19:46.797Z,1012.23
2018-12-15T04:20:46.756Z,1012.24
2018-12-15T04:21:46.782Z,1012.24
2018-12-15T04:22:46.731Z,1012.29
2018-12-15T04:23:46.725Z,1012.27
2018-12-15T04:24:46.711Z,1012.23
2018-12-15T04:25:46.694Z,1012.23
2018-12-15T04:26:46.701Z,1012.25
2018-12-15T04:27:46.675Z,1012.23
2018-12-15T04:28:46.704Z,1012.19
2018-12-15T04:29:46.650Z,1012.20
2018-12-15T04:30:46.646Z,1012.20
2018-12-15T04:31:46.638Z,1012.20
2018-12-15T04:32:46.670Z,1012.18
2018-12-15T04:33:46.613Z,1012.21
2018-12-15T04:34:46.623Z,1012.18
2018-12-15T04:35:46.613Z,1012.20
2018-12-15T04:36:46.596Z,1012.25
2018-12-15T04:37:46.556Z,1012.20
2018-12-15T04:38:46.575Z,1012.21
2018-12-15T04:39:46.540Z,1012.23
2018-12-15T04:40:46.553Z,1012.17
2018-12-15T04:41:46.509Z,1012.19
2018-12-15T04:42:46.517Z,1012.17
2018-12-15T04:43:46.512Z,1012.21
2018-12-15T04:44:46.460Z,1012.18
2018-12-15T04:45:46.453Z,1012.18
2018-12-15T04:46:46.444Z,1012.18
2018-12-15T04:47:46.426Z,1012.19
2018-12-15T04:48:46.425Z,1012.17
2018-12-15T04:49:46.404Z,1012.12
2018-12-15T04:50:46.395Z,1012.15
2018-12-15T04:51:46.391Z,1012.14
2018-12-15T04:52:46.398Z,1012.12
2018-12-15T04:53:46.381Z,1012.11
2018-12-15T04:54:46.373Z,1012.11
2018-12-15T04:55:46.335Z,1012.11
2018-12-15T04:56:46.319Z,1012.08
2018-12-15T04:57:46.307Z,1012.12
2018-12-15T04:58:46.299Z,1012.09
2018-12-15T04:59:56.067Z,1012.09
2018-12-15T05:01:51.812Z,1012.09
2018-12-15T05:03:02.395Z,1012.06
2018-12-15T05:04:45.381Z,1012.13
2018-12-15T05:05:45.427Z,1012.16
2018-12-15T05:06:45.359Z,1012.14
2018-12-15T05:07:45.493Z,1012.16
2018-12-15T05:08:45.318Z,1012.14
2018-12-15T05:09:45.284Z,1012.21
2018-12-15T05:10:45.277Z,1012.20
2018-12-15T05:11:45.274Z,1012.19
2018-12-15T05:12:45.276Z,1012.22
2018-12-15T05:13:45.308Z,1012.21
2018-12-15T05:14:45.231Z,1012.23
2018-12-15T05:15:45.350Z,1012.21
2018-12-15T05:16:45.202Z,1012.22
2018-12-15T05:17:45.212Z,1012.22
2018-12-15T05:18:45.201Z,1012.22
2018-12-15T05:19:45.171Z,1012.19
2018-12-15T05:20:45.164Z,1012.21
2018-12-15T05:21:45.162Z,1012.26
2018-12-15T05:22:45.146Z,1012.25
2018-12-15T05:23:45.178Z,1012.27
2018-12-15T05:24:45.130Z,1012.25
2018-12-15T05:25:45.091Z,1012.18
2018-12-15T05:26:45.100Z,1012.21
2018-12-15T05:27:45.070Z,1012.22
2018-12-15T05:28:45.086Z,1012.21
2018-12-15T05:29:45.047Z,1012.20
2018-12-15T05:30:45.035Z,1012.21
2018-12-15T05:31:45.033Z,1012.23
2018-12-15T05:32:45.011Z,1012.27
2018-12-15T05:33:45.003Z,1012.30
2018-12-15T05:34:44.980Z,1012.29
2018-12-15T05:35:53.771Z,1012.30
2018-12-15T05:37:38.406Z,1012.35
2018-12-15T05:38:38.362Z,1012.28
2018-12-15T05:39:38.345Z,1012.29
2018-12-15T05:40:38.321Z,1012.33
2018-12-15T05:41:38.309Z,1012.34
2018-12-15T05:42:38.326Z,1012.34
2018-12-15T05:43:38.315Z,1012.34
2018-12-15T05:44:38.264Z,1012.35
2018-12-15T05:45:38.268Z,1012.36
2018-12-15T05:46:38.263Z,1012.32
2018-12-15T05:47:38.343Z,1012.32
2018-12-15T05:48:38.232Z,1012.34
2018-12-15T05:49:38.208Z,1012.34
2018-12-15T05:50:38.199Z,1012.33
2018-12-15T05:51:38.179Z,1012.33
2018-12-15T05:52:38.202Z,1012.32
2018-12-15T05:53:38.186Z,1012.32
2018-12-15T05:54:38.151Z,1012.29
2018-12-15T05:55:38.139Z,1012.27
2018-12-15T05:56:38.154Z,1012.29
2018-12-15T05:57:38.121Z,1012.27
2018-12-15T05:58:38.134Z,1012.27
2018-12-15T05:59:38.087Z,1012.31
2018-12-15T06:00:38.090Z,1012.30
2018-12-15T06:01:38.075Z,1012.32
2018-12-15T06:02:38.052Z,1012.30
2018-12-15T06:03:38.039Z,1012.35
2018-12-15T06:04:38.017Z,1012.38
2018-12-15T06:05:38.018Z,1012.34
2018-12-15T06:06:37.998Z,1012.38
2018-12-15T06:07:38.011Z,1012.37
2018-12-15T06:08:37.980Z,1012.37
2018-12-15T06:09:37.975Z,1012.38
2018-12-15T06:10:37.952Z,1012.39
2018-12-15T06:11:37.937Z,1012.36
2018-12-15T06:12:37.929Z,1012.38
2018-12-15T06:13:37.907Z,1012.42
2018-12-15T06:14:37.910Z,1012.40
2018-12-15T06:15:37.889Z,1012.39
2018-12-15T06:16:37.874Z,1012.42
2018-12-15T06:17:37.861Z,1012.41
2018-12-15T06:18:37.874Z,1012.40
2018-12-15T06:19:37.849Z,1012.44
2018-12-15T06:20:37.819Z,1012.43
2018-12-15T06:21:37.811Z,1012.43
2018-12-15T06:22:37.857Z,1012.43
2018-12-15T06:23:37.820Z,1012.46
2018-12-15T06:24:37.790Z,1012.43
2018-12-15T06:25:37.790Z,1012.44
2018-12-15T06:26:46.699Z,1012.45
2018-12-15T06:28:42.341Z,1012.43
2018-12-15T06:29:51.880Z,1012.40
2018-12-15T06:31:46.669Z,1012.42
2018-12-15T06:32:46.664Z,1012.42
2018-12-15T06:33:46.645Z,1012.39
2018-12-15T06:34:46.645Z,1012.42
2018-12-15T06:35:46.644Z,1012.40
2018-12-15T06:36:46.604Z,1012.43
2018-12-15T06:37:46.759Z,1012.44
2018-12-15T06:38:46.576Z,1012.44
2018-12-15T06:39:46.770Z,1012.41
2018-12-15T06:40:46.543Z,1012.40
2018-12-15T06:41:46.528Z,1012.37
2018-12-15T06:42:46.526Z,1012.35
2018-12-15T06:43:46.513Z,1012.37
2018-12-15T06:44:46.544Z,1012.34
2018-12-15T06:45:46.491Z,1012.35
2018-12-15T06:46:46.478Z,1012.40
2018-12-15T06:47:46.476Z,1012.37
2018-12-15T06:48:46.468Z,1012.35
2018-12-15T06:49:46.438Z,1012.38
2018-12-15T06:50:46.437Z,1012.39
2018-12-15T06:51:46.413Z,1012.35
2018-12-15T06:52:46.399Z,1012.34
2018-12-15T06:53:46.411Z,1012.30
2018-12-15T06:54:46.394Z,1012.35
2018-12-15T06:55:46.399Z,1012.34
2018-12-15T06:56:46.340Z,1012.32
2018-12-15T06:57:46.367Z,1012.36
2018-12-15T06:58:46.354Z,1012.31
2018-12-15T06:59:46.317Z,1012.35
2018-12-15T07:00:46.303Z,1012.27
2018-12-15T07:01:46.317Z,1012.30
2018-12-15T07:02:46.275Z,1012.31
2018-12-15T07:03:46.328Z,1012.33
2018-12-15T07:04:46.273Z,1012.34
2018-12-15T07:05:55.027Z,1012.40
2018-12-15T07:07:50.870Z,1012.35
2018-12-15T07:08:50.828Z,1012.39
2018-12-15T07:09:50.878Z,1012.41
2018-12-15T07:10:50.858Z,1012.39
2018-12-15T07:11:50.734Z,1012.37
2018-12-15T07:12:50.825Z,1012.38
2018-12-15T07:13:50.836Z,1012.36
2018-12-15T07:14:50.679Z,1012.44
2018-12-15T07:15:50.659Z,1012.46
2018-12-15T07:16:50.666Z,1012.50
2018-12-15T07:17:50.569Z,1012.50
2018-12-15T07:18:50.559Z,1012.51
2018-12-15T07:19:50.564Z,1012.51
2018-12-15T07:20:50.589Z,1012.49
2018-12-15T07:21:50.598Z,1012.47
2018-12-15T07:22:50.542Z,1012.51
2018-12-15T07:23:50.506Z,1012.49
2018-12-15T07:24:50.497Z,1012.53
2018-12-15T07:25:50.508Z,1012.52
2018-12-15T07:26:50.602Z,1012.45
2018-12-15T07:27:50.530Z,1012.54
2018-12-15T07:28:50.478Z,1012.57
2018-12-15T07:29:50.490Z,1012.56
2018-12-15T07:30:50.443Z,1012.57
2018-12-15T07:31:50.476Z,1012.57
2018-12-15T07:32:50.414Z,1012.59
2018-12-15T07:33:50.461Z,1012.57
2018-12-15T07:34:50.415Z,1012.60
2018-12-15T07:35:50.433Z,1012.60
2018-12-15T07:36:50.368Z,1012.54
2018-12-15T07:37:50.374Z,1012.57
2018-12-15T07:38:50.355Z,1012.58
2018-12-15T07:39:50.343Z,1012.56
2018-12-15T07:40:50.306Z,1012.60
2018-12-15T07:41:50.290Z,1012.55
2018-12-15T07:42:50.356Z,1012.58
2018-12-15T07:43:50.302Z,1012.48
2018-12-15T07:44:50.309Z,1012.55
2018-12-15T07:45:50.276Z,1012.55
2018-12-15T07:46:50.239Z,1012.50
2018-12-15T07:47:50.292Z,1012.54
2018-12-15T07:48:51.471Z,1012.56
2018-12-15T07:49:50.228Z,1012.61
2018-12-15T07:50:50.233Z,1012.58
2018-12-15T07:51:50.170Z,1012.59
2018-12-15T07:52:50.324Z,1012.61
2018-12-15T07:53:50.206Z,1012.61
2018-12-15T07:54:50.183Z,1012.61
2018-12-15T07:55:50.202Z,1012.64
2018-12-15T07:57:00.316Z,1012.68
2018-12-15T07:59:02.570Z,1012.65
2018-12-15T07:59:54.906Z,1012.66
2018-12-15T08:00:54.974Z,1012.66
2018-12-15T08:01:54.656Z,1012.70
2018-12-15T08:02:54.981Z,1012.70
2018-12-15T08:03:54.558Z,1012.68
2018-12-15T08:04:54.548Z,1012.65
2018-12-15T08:05:54.549Z,1012.63
2018-12-15T08:08:26.872Z,1012.66
2018-12-15T08:11:06.580Z,1012.63
2018-12-15T08:12:06.452Z,1012.61
2018-12-15T08:13:06.201Z,1012.65
2018-12-15T08:14:06.261Z,1012.62
2018-12-15T08:15:06.074Z,1012.60
2018-12-15T08:16:06.073Z,1012.61
2018-12-15T08:17:06.031Z,1012.58
2018-12-15T08:18:06.037Z,1012.54
2018-12-15T08:19:06.049Z,1012.58
2018-12-15T08:20:06.003Z,1012.56
2018-12-15T08:21:05.998Z,1012.60
2018-12-15T08:22:05.960Z,1012.59
2018-12-15T08:23:05.984Z,1012.62
2018-12-15T08:24:05.959Z,1012.64
2018-12-15T08:25:05.941Z,1012.66
2018-12-15T08:26:14.992Z,1012.65
2018-12-15T08:28:10.813Z,1012.68
2018-12-15T08:29:10.689Z,1012.62
2018-12-15T08:30:10.801Z,1012.61
2018-12-15T08:31:10.616Z,1012.64
2018-12-15T08:32:10.626Z,1012.63
2018-12-15T08:33:10.674Z,1012.63
2018-12-15T08:34:10.593Z,1012.63
2018-12-15T08:35:10.586Z,1012.61
2018-12-15T08:36:10.540Z,1012.61
2018-12-15T08:37:10.553Z,1012.57
2018-12-15T08:38:10.603Z,1012.60
2018-12-15T08:39:10.527Z,1012.60
2018-12-15T08:40:19.651Z,1012.55
2018-12-15T08:42:25.219Z,1012.60
2018-12-15T08:43:24.722Z,1012.60
2018-12-15T08:45:21.127Z,1012.65
2018-12-15T08:46:20.512Z,1012.68
2018-12-15T08:47:29.180Z,1012.74
2018-12-15T08:49:25.072Z,1012.74
2018-12-15T08:51:58.238Z,1012.80
2018-12-15T08:52:57.779Z,1012.78
2018-12-15T08:53:57.783Z,1012.80
2018-12-15T08:54:57.782Z,1012.79
2018-12-15T08:55:57.717Z,1012.81
2018-12-15T08:56:57.726Z,1012.79
2018-12-15T08:57:57.665Z,1012.81
2018-12-15T08:58:57.717Z,1012.82
2018-12-15T09:01:30.134Z,1012.86
2018-12-15T09:02:29.964Z,1012.84
2018-12-15T09:03:29.994Z,1012.88
2018-12-15T09:04:29.980Z,1012.88
2018-12-15T09:05:30.325Z,1012.86
2018-12-15T09:06:29.772Z,1012.84
2018-12-15T09:07:29.779Z,1012.85
2018-12-15T09:08:29.727Z,1012.84
2018-12-15T09:09:29.936Z,1012.82
2018-12-15T09:10:29.787Z,1012.79
2018-12-15T09:11:29.715Z,1012.81
2018-12-15T09:12:29.677Z,1012.79
2018-12-15T09:13:29.718Z,1012.73
2018-12-15T09:14:29.720Z,1012.74
2018-12-15T09:15:29.741Z,1012.76
2018-12-15T09:16:29.645Z,1012.77
2018-12-15T09:17:29.726Z,1012.78
2018-12-15T09:18:29.601Z,1012.75
2018-12-15T09:19:29.649Z,1012.76
2018-12-15T09:20:29.656Z,1012.71
2018-12-15T09:21:29.605Z,1012.75
2018-12-15T09:22:29.609Z,1012.76
2018-12-15T09:23:29.642Z,1012.78
2018-12-15T09:24:29.526Z,1012.79
2018-12-15T09:25:29.594Z,1012.79
2018-12-15T09:26:38.632Z,1012.83
2018-12-15T09:28:41.990Z,1012.80
2018-12-15T09:29:34.054Z,1012.81
2018-12-15T09:30:34.350Z,1012.81
2018-12-15T09:31:34.208Z,1012.82
2018-12-15T09:32:33.967Z,1012.79
2018-12-15T09:33:33.956Z,1012.86
2018-12-15T09:34:33.963Z,1012.86
2018-12-15T09:35:33.974Z,1012.93
2018-12-15T09:36:33.937Z,1012.91
2018-12-15T09:37:33.932Z,1012.89
2018-12-15T09:38:33.890Z,1012.89
2018-12-15T09:39:33.885Z,1012.87
2018-12-15T09:40:33.917Z,1012.81
2018-12-15T09:41:33.909Z,1012.78
2018-12-15T09:42:33.904Z,1012.78
2018-12-15T09:43:33.869Z,1012.78
2018-12-15T09:44:33.824Z,1012.79
2018-12-15T09:45:33.861Z,1012.83
2018-12-15T09:46:33.834Z,1012.82
2018-12-15T09:47:33.831Z,1012.78
2018-12-15T09:48:43.198Z,1012.79
2018-12-15T09:50:38.273Z,1012.78
2018-12-15T09:51:38.253Z,1012.76
2018-12-15T09:52:38.221Z,1012.76
2018-12-15T09:53:38.378Z,1012.75
2018-12-15T09:54:38.312Z,1012.73
2018-12-15T09:55:38.188Z,1012.76
2018-12-15T09:56:38.332Z,1012.73
2018-12-15T09:57:38.138Z,1012.73
2018-12-15T09:58:38.226Z,1012.69
2018-12-15T09:59:46.871Z,1012.70
2018-12-15T10:01:43.088Z,1012.76
2018-12-15T10:02:42.627Z,1012.75
2018-12-15T10:03:42.570Z,1012.72
2018-12-15T10:04:42.564Z,1012.73
2018-12-15T10:05:42.598Z,1012.72
2018-12-15T10:06:42.510Z,1012.74
2018-12-15T10:07:42.499Z,1012.75
2018-12-15T10:08:42.491Z,1012.70
2018-12-15T10:09:42.498Z,1012.73
2018-12-15T10:10:42.481Z,1012.77
2018-12-15T10:11:42.518Z,1012.72
2018-12-15T10:12:42.544Z,1012.75
2018-12-15T10:13:42.434Z,1012.71
2018-12-15T10:14:42.442Z,1012.68
2018-12-15T10:15:42.417Z,1012.69
2018-12-15T10:16:42.450Z,1012.66
2018-12-15T10:17:42.374Z,1012.61
2018-12-15T10:18:42.462Z,1012.60
2018-12-15T10:19:42.482Z,1012.58
2018-12-15T10:20:42.375Z,1012.58
2018-12-15T10:21:42.371Z,1012.60
2018-12-15T10:22:42.628Z,1012.57
2018-12-15T10:23:43.031Z,1012.56
2018-12-15T10:24:42.441Z,1012.54
2018-12-15T10:25:42.660Z,1012.56
2018-12-15T10:26:42.411Z,1012.54
2018-12-15T10:27:43.658Z,1012.56
2018-12-15T10:28:46.385Z,1012.53
2018-12-15T10:29:42.647Z,1012.51
2018-12-15T10:30:42.305Z,1012.54
2018-12-15T10:31:42.285Z,1012.48
2018-12-15T10:32:42.270Z,1012.51
2018-12-15T10:33:45.826Z,1012.47
2018-12-15T10:35:03.284Z,1012.50
2018-12-15T10:37:34.746Z,1012.46
2018-12-15T10:38:29.184Z,1012.45
2018-12-15T10:39:28.945Z,1012.45
2018-12-15T10:40:29.381Z,1012.42
2018-12-15T10:41:27.357Z,1012.43
2018-12-15T10:42:28.253Z,1012.40
2018-12-15T10:43:29.808Z,1012.36
2018-12-15T10:44:28.189Z,1012.36
2018-12-15T10:52:58.022Z,1012.36
2018-12-15T10:53:59.808Z,1012.28
2018-12-15T10:56:42.147Z,1012.24
2018-12-15T10:57:42.399Z,1012.20
2018-12-15T10:58:42.132Z,1012.19
2018-12-15T10:59:42.176Z,1012.17
2018-12-15T11:00:42.192Z,1012.14
2018-12-15T11:01:42.256Z,1012.13
2018-12-15T11:02:42.024Z,1012.18
2018-12-15T11:03:42.059Z,1012.13
2018-12-15T11:04:42.047Z,1012.11
2018-12-15T11:05:42.063Z,1012.09
2018-12-15T11:06:41.974Z,1012.06
2018-12-15T11:07:41.984Z,1012.08
2018-12-15T11:08:41.959Z,1012.07
2018-12-15T11:09:41.930Z,1012.06
2018-12-15T11:10:41.917Z,1012.03
2018-12-15T11:11:54.851Z,1012.04
2018-12-15T11:13:46.472Z,1012.02
2018-12-15T11:16:26.627Z,1012.09
2018-12-15T11:19:05.020Z,1012.09
2018-12-15T11:20:04.999Z,1012.03
2018-12-15T11:21:13.799Z,1011.99
2018-12-15T11:23:17.330Z,1011.85
2018-12-15T11:24:09.625Z,1011.87
2018-12-15T11:25:09.376Z,1011.88
2018-12-15T11:26:09.355Z,1011.88
2018-12-15T11:27:09.358Z,1011.82
2018-12-15T11:28:09.331Z,1011.83
2018-12-15T11:29:09.336Z,1011.84
2018-12-15T11:30:09.291Z,1011.82
2018-12-15T11:31:09.308Z,1011.78
2018-12-15T11:32:09.269Z,1011.73
2018-12-15T11:33:09.301Z,1011.70
2018-12-15T11:34:09.265Z,1011.72
2018-12-15T11:35:09.239Z,1011.72
2018-12-15T11:36:09.237Z,1011.73
2018-12-15T11:37:09.290Z,1011.70
2018-12-15T11:38:09.220Z,1011.74
2018-12-15T11:39:09.215Z,1011.65
2018-12-15T11:40:17.849Z,1011.60
2018-12-15T11:42:13.792Z,1011.63
2018-12-15T11:43:13.667Z,1011.62
2018-12-15T11:44:13.649Z,1011.61
2018-12-15T11:45:13.665Z,1011.55
2018-12-15T11:46:13.654Z,1011.54
2018-12-15T11:47:13.611Z,1011.54
2018-12-15T11:48:13.721Z,1011.51
2018-12-15T11:49:13.584Z,1011.47
2018-12-15T11:50:13.615Z,1011.46
2018-12-15T11:51:13.581Z,1011.41
2018-12-15T11:52:13.551Z,1011.41
2018-12-15T11:53:13.534Z,1011.36
2018-12-15T11:54:13.521Z,1011.40
2018-12-15T11:55:13.514Z,1011.32
2018-12-15T11:56:13.524Z,1011.41
2018-12-15T11:57:13.490Z,1011.36
2018-12-15T11:58:13.622Z,1011.39
2018-12-15T12:00:53.066Z,1011.35
2018-12-15T12:01:53.191Z,1011.35
2018-12-15T12:04:09.020Z,1011.35
2018-12-15T12:05:08.922Z,1011.37
2018-12-15T12:06:08.914Z,1011.39
2018-12-15T12:07:08.950Z,1011.36
2018-12-15T12:08:08.881Z,1011.31
2018-12-15T12:09:08.855Z,1011.36
2018-12-15T12:10:08.912Z,1011.36
2018-12-15T12:11:08.830Z,1011.29
2018-12-15T12:12:08.825Z,1011.31
2018-12-15T12:13:08.872Z,1011.36
2018-12-15T12:14:08.874Z,1011.34
2018-12-15T12:15:08.833Z,1011.33
2018-12-15T12:16:08.788Z,1011.37
2018-12-15T12:17:08.762Z,1011.35
2018-12-15T12:18:08.764Z,1011.39
2018-12-15T12:19:08.789Z,1011.34
2018-12-15T12:20:08.761Z,1011.36
2018-12-15T12:21:08.731Z,1011.33
2018-12-15T12:22:08.722Z,1011.36
2018-12-15T12:23:08.687Z,1011.30
2018-12-15T12:24:08.691Z,1011.33
2018-12-15T12:25:08.662Z,1011.28
2018-12-15T12:26:08.659Z,1011.22
2018-12-15T12:27:08.643Z,1011.25
2018-12-15T12:28:08.642Z,1011.21
2018-12-15T12:29:08.624Z,1011.20
2018-12-15T12:30:08.610Z,1011.17
2018-12-15T12:31:08.597Z,1011.16
2018-12-15T12:32:08.583Z,1011.14
2018-12-15T12:33:08.611Z,1011.18
2018-12-15T12:34:08.597Z,1011.16
2018-12-15T12:35:08.570Z,1011.15
2018-12-15T12:36:08.589Z,1011.14
2018-12-15T12:37:08.633Z,1011.15
2018-12-15T12:38:08.521Z,1011.16
2018-12-15T12:39:08.534Z,1011.17
2018-12-15T12:40:08.537Z,1011.19
2018-12-15T12:41:08.519Z,1011.17
2018-12-15T12:42:08.514Z,1011.19
2018-12-15T12:43:08.512Z,1011.14
2018-12-15T12:44:08.463Z,1011.16
2018-12-15T12:45:08.444Z,1011.19
2018-12-15T12:46:08.443Z,1011.07
2018-12-15T12:47:08.431Z,1011.11
2018-12-15T12:48:08.407Z,1011.16
2018-12-15T12:49:08.396Z,1011.16
2018-12-15T12:50:08.409Z,1011.19
2018-12-15T12:51:08.411Z,1011.15
2018-12-15T12:52:08.379Z,1011.15
2018-12-15T12:53:08.725Z,1011.14
2018-12-15T12:54:08.437Z,1011.10
2018-12-15T12:55:08.427Z,1011.07
2018-12-15T12:56:08.327Z,1011.07
2018-12-15T12:57:08.310Z,1011.06
2018-12-15T12:58:08.286Z,1011.08
2018-12-15T12:59:17.077Z,1011.09
2018-12-15T13:01:13.178Z,1011.04
2018-12-15T13:02:12.752Z,1011.08
2018-12-15T13:05:00.433Z,1011.02
2018-12-15T13:05:52.321Z,1011.05
2018-12-15T13:06:52.192Z,1011.04
2018-12-15T13:09:31.360Z,1010.98
2018-12-15T13:10:31.554Z,1011.03
2018-12-15T13:11:31.324Z,1010.99
2018-12-15T13:12:31.497Z,1011.01
2018-12-15T13:13:31.283Z,1011.00
2018-12-15T13:14:31.256Z,1011.00
2018-12-15T13:15:31.326Z,1010.93
2018-12-15T13:16:31.253Z,1010.95